Aviation Digital Data Service (ADDS)

Output produced by METARs form (1523 UTC 22 April 2021)
found at http://www.aviationweather.gov/metar/data/
 
KDLH 221455Z 22007KT 10SM CLR 06/M02 A2988 RMK AO2 SLP134 T00611022 58003
KDLH 221132Z 2212/2312 22005KT P6SM SKC 
     FM221800 26010G16KT P6SM SKC 
     FM230000 25008KT P6SM SKC 
     FM231100 25007KT P6SM BKN100